sensor_id;sensor_type;location;lat;lon;timestamp;P1;durP1;ratioP1;P2;durP2;ratioP2
24335;SDS011;33098;52.400;16.880;2022-10-19T00:02:07;16.30;;;11.10;;
24335;SDS011;33098;52.400;16.880;2022-10-19T00:04:40;17.20;;;11.40;;
24335;SDS011;33098;52.400;16.880;2022-10-19T00:07:10;15.60;;;11.10;;
24335;SDS011;33098;52.400;16.880;2022-10-19T00:09:47;15.70;;;11.40;;
24335;SDS011;33098;52.400;16.880;2022-10-19T00:12:19;16.80;;;11.10;;
24335;SDS011;33098;52.400;16.880;2022-10-19T00:14:49;16.20;;;10.50;;
24335;SDS011;33098;52.400;16.880;2022-10-19T00:17:22;12.90;;;10.20;;
24335;SDS011;33098;52.400;16.880;2022-10-19T00:19:54;16.80;;;11.00;;
24335;SDS011;33098;52.400;16.880;2022-10-19T00:22:23;16.00;;;10.20;;
24335;SDS011;33098;52.400;16.880;2022-10-19T00:24:55;14.40;;;9.40;;
24335;SDS011;33098;52.400;16.880;2022-10-19T00:27:26;13.30;;;9.40;;
24335;SDS011;33098;52.400;16.880;2022-10-19T00:29:57;13.90;;;8.70;;
24335;SDS011;33098;52.400;16.880;2022-10-19T00:32:26;15.40;;;10.40;;
24335;SDS011;33098;52.400;16.880;2022-10-19T00:35:01;13.20;;;9.30;;
24335;SDS011;33098;52.400;16.880;2022-10-19T00:37:46;15.30;;;9.70;;
24335;SDS011;33098;52.400;16.880;2022-10-19T00:40:19;14.60;;;10.00;;
24335;SDS011;33098;52.400;16.880;2022-10-19T00:42:56;15.90;;;9.60;;
24335;SDS011;33098;52.400;16.880;2022-10-19T00:45:24;15.60;;;10.00;;
24335;SDS011;33098;52.400;16.880;2022-10-19T00:48:00;17.80;;;9.60;;
24335;SDS011;33098;52.400;16.880;2022-10-19T00:50:30;14.20;;;10.00;;
24335;SDS011;33098;52.400;16.880;2022-10-19T00:52:57;15.10;;;9.80;;
24335;SDS011;33098;52.400;16.880;2022-10-19T00:55:25;15.70;;;10.30;;
24335;SDS011;33098;52.400;16.880;2022-10-19T00:58:02;16.80;;;9.80;;
24335;SDS011;33098;52.400;16.880;2022-10-19T01:00:29;17.10;;;9.50;;
24335;SDS011;33098;52.400;16.880;2022-10-19T01:02:59;15.20;;;9.50;;
24335;SDS011;33098;52.400;16.880;2022-10-19T01:05:42;16.10;;;10.40;;
24335;SDS011;33098;52.400;16.880;2022-10-19T01:08:15;14.90;;;9.80;;
24335;SDS011;33098;52.400;16.880;2022-10-19T01:10:50;16.00;;;10.10;;
24335;SDS011;33098;52.400;16.880;2022-10-19T01:20:05;17.20;;;10.00;;
24335;SDS011;33098;52.400;16.880;2022-10-19T01:31:54;13.60;;;8.40;;
24335;SDS011;33098;52.400;16.880;2022-10-19T01:34:18;13.20;;;9.00;;
24335;SDS011;33098;52.400;16.880;2022-10-19T01:39:42;13.70;;;7.60;;
24335;SDS011;33098;52.400;16.880;2022-10-19T01:44:51;15.10;;;8.40;;
24335;SDS011;33098;52.400;16.880;2022-10-19T01:47:29;13.20;;;8.60;;
24335;SDS011;33098;52.400;16.880;2022-10-19T01:50:13;11.50;;;8.20;;
24335;SDS011;33098;52.400;16.880;2022-10-19T01:52:51;14.50;;;7.90;;
24335;SDS011;33098;52.400;16.880;2022-10-19T01:55:28;13.70;;;8.20;;
24335;SDS011;33098;52.400;16.880;2022-10-19T01:58:12;12.70;;;7.80;;
24335;SDS011;33098;52.400;16.880;2022-10-19T02:00:52;12.70;;;7.90;;
24335;SDS011;33098;52.400;16.880;2022-10-19T02:03:28;12.80;;;7.60;;
24335;SDS011;33098;52.400;16.880;2022-10-19T02:06:11;12.70;;;7.90;;
24335;SDS011;33098;52.400;16.880;2022-10-19T02:08:53;9.00;;;6.50;;
24335;SDS011;33098;52.400;16.880;2022-10-19T02:11:30;14.10;;;7.40;;
24335;SDS011;33098;52.400;16.880;2022-10-19T02:14:06;13.40;;;7.50;;
24335;SDS011;33098;52.400;16.880;2022-10-19T02:16:45;9.50;;;6.70;;
24335;SDS011;33098;52.400;16.880;2022-10-19T02:19:33;11.30;;;7.40;;
24335;SDS011;33098;52.400;16.880;2022-10-19T02:22:08;10.60;;;6.50;;
24335;SDS011;33098;52.400;16.880;2022-10-19T02:24:37;10.70;;;7.00;;
24335;SDS011;33098;52.400;16.880;2022-10-19T02:27:13;9.60;;;6.40;;
24335;SDS011;33098;52.400;16.880;2022-10-19T02:29:41;18.20;;;6.80;;
24335;SDS011;33098;52.400;16.880;2022-10-19T02:32:13;12.50;;;6.40;;
24335;SDS011;33098;52.400;16.880;2022-10-19T02:34:44;10.90;;;6.40;;
24335;SDS011;33098;52.400;16.880;2022-10-19T02:37:13;11.20;;;5.80;;
24335;SDS011;33098;52.400;16.880;2022-10-19T02:39:48;12.00;;;6.00;;
24335;SDS011;33098;52.400;16.880;2022-10-19T02:45:28;10.40;;;5.90;;
24335;SDS011;33098;52.400;16.880;2022-10-19T02:48:06;10.40;;;5.50;;
24335;SDS011;33098;52.400;16.880;2022-10-19T02:50:42;10.40;;;5.90;;
24335;SDS011;33098;52.400;16.880;2022-10-19T02:53:10;12.10;;;5.00;;
24335;SDS011;33098;52.400;16.880;2022-10-19T02:55:37;10.30;;;5.20;;
24335;SDS011;33098;52.400;16.880;2022-10-19T02:58:19;10.20;;;5.50;;
24335;SDS011;33098;52.400;16.880;2022-10-19T03:00:47;12.70;;;5.40;;
24335;SDS011;33098;52.400;16.880;2022-10-19T03:03:17;8.40;;;4.60;;
24335;SDS011;33098;52.400;16.880;2022-10-19T03:05:46;9.30;;;5.40;;
24335;SDS011;33098;52.400;16.880;2022-10-19T03:08:19;9.70;;;5.50;;
24335;SDS011;33098;52.400;16.880;2022-10-19T03:10:52;9.80;;;4.70;;
24335;SDS011;33098;52.400;16.880;2022-10-19T03:13:18;9.80;;;4.60;;
24335;SDS011;33098;52.400;16.880;2022-10-19T03:15:48;7.40;;;4.70;;
24335;SDS011;33098;52.400;16.880;2022-10-19T03:18:19;8.90;;;4.80;;
24335;SDS011;33098;52.400;16.880;2022-10-19T03:21:00;8.80;;;4.30;;
24335;SDS011;33098;52.400;16.880;2022-10-19T03:23:40;12.00;;;4.80;;
24335;SDS011;33098;52.400;16.880;2022-10-19T03:26:11;11.00;;;4.80;;
24335;SDS011;33098;52.400;16.880;2022-10-19T03:28:48;8.40;;;4.40;;
24335;SDS011;33098;52.400;16.880;2022-10-19T03:31:22;5.80;;;3.30;;
24335;SDS011;33098;52.400;16.880;2022-10-19T03:33:53;7.20;;;4.10;;
24335;SDS011;33098;52.400;16.880;2022-10-19T03:36:22;8.50;;;4.00;;
24335;SDS011;33098;52.400;16.880;2022-10-19T03:38:56;8.40;;;4.30;;
24335;SDS011;33098;52.400;16.880;2022-10-19T03:41:27;10.40;;;4.50;;
24335;SDS011;33098;52.400;16.880;2022-10-19T03:43:59;6.00;;;3.80;;
24335;SDS011;33098;52.400;16.880;2022-10-19T03:46:31;10.40;;;3.60;;
24335;SDS011;33098;52.400;16.880;2022-10-19T03:48:59;5.70;;;3.70;;
24335;SDS011;33098;52.400;16.880;2022-10-19T03:51:38;5.90;;;3.60;;
24335;SDS011;33098;52.400;16.880;2022-10-19T03:54:14;7.00;;;3.50;;
24335;SDS011;33098;52.400;16.880;2022-10-19T03:56:55;11.00;;;4.10;;
24335;SDS011;33098;52.400;16.880;2022-10-19T03:59:25;8.40;;;4.10;;
24335;SDS011;33098;52.400;16.880;2022-10-19T04:02:08;8.90;;;4.20;;
24335;SDS011;33098;52.400;16.880;2022-10-19T04:04:40;10.20;;;3.80;;
24335;SDS011;33098;52.400;16.880;2022-10-19T04:07:14;9.90;;;3.90;;
24335;SDS011;33098;52.400;16.880;2022-10-19T04:09:51;7.40;;;3.90;;
24335;SDS011;33098;52.400;16.880;2022-10-19T04:12:19;9.10;;;3.90;;
24335;SDS011;33098;52.400;16.880;2022-10-19T04:14:52;7.60;;;3.60;;
24335;SDS011;33098;52.400;16.880;2022-10-19T04:17:19;6.30;;;3.40;;
24335;SDS011;33098;52.400;16.880;2022-10-19T04:19:49;11.10;;;3.50;;
24335;SDS011;33098;52.400;16.880;2022-10-19T04:22:26;6.90;;;3.60;;
24335;SDS011;33098;52.400;16.880;2022-10-19T04:24:56;5.80;;;3.50;;
24335;SDS011;33098;52.400;16.880;2022-10-19T04:27:32;7.90;;;3.30;;
24335;SDS011;33098;52.400;16.880;2022-10-19T04:29:59;9.60;;;3.70;;
24335;SDS011;33098;52.400;16.880;2022-10-19T04:32:30;7.40;;;3.30;;
24335;SDS011;33098;52.400;16.880;2022-10-19T04:35:00;6.70;;;3.40;;
24335;SDS011;33098;52.400;16.880;2022-10-19T04:37:29;7.70;;;3.30;;
24335;SDS011;33098;52.400;16.880;2022-10-19T04:40:01;7.70;;;3.20;;
24335;SDS011;33098;52.400;16.880;2022-10-19T04:42:37;7.10;;;3.40;;
24335;SDS011;33098;52.400;16.880;2022-10-19T04:45:07;5.80;;;3.20;;
24335;SDS011;33098;52.400;16.880;2022-10-19T04:47:41;6.00;;;2.80;;
24335;SDS011;33098;52.400;16.880;2022-10-19T04:50:13;5.40;;;3.00;;
24335;SDS011;33098;52.400;16.880;2022-10-19T04:52:51;4.40;;;2.80;;
24335;SDS011;33098;52.400;16.880;2022-10-19T04:55:23;6.20;;;3.00;;
24335;SDS011;33098;52.400;16.880;2022-10-19T04:57:57;9.30;;;3.10;;
24335;SDS011;33098;52.400;16.880;2022-10-19T05:00:30;8.10;;;3.30;;
24335;SDS011;33098;52.400;16.880;2022-10-19T05:03:03;9.60;;;3.10;;
24335;SDS011;33098;52.400;16.880;2022-10-19T05:05:33;8.90;;;3.30;;
24335;SDS011;33098;52.400;16.880;2022-10-19T05:08:04;6.80;;;2.80;;
24335;SDS011;33098;52.400;16.880;2022-10-19T05:10:36;10.40;;;2.70;;
24335;SDS011;33098;52.400;16.880;2022-10-19T05:13:06;5.50;;;2.40;;
24335;SDS011;33098;52.400;16.880;2022-10-19T05:15:34;5.70;;;2.50;;
24335;SDS011;33098;52.400;16.880;2022-10-19T05:18:01;9.20;;;3.10;;
24335;SDS011;33098;52.400;16.880;2022-10-19T05:20:28;9.40;;;3.00;;
24335;SDS011;33098;52.400;16.880;2022-10-19T05:22:55;6.20;;;2.70;;
24335;SDS011;33098;52.400;16.880;2022-10-19T05:25:22;8.50;;;3.00;;
24335;SDS011;33098;52.400;16.880;2022-10-19T05:27:54;6.10;;;2.50;;
24335;SDS011;33098;52.400;16.880;2022-10-19T05:30:26;6.00;;;2.60;;
24335;SDS011;33098;52.400;16.880;2022-10-19T05:32:54;6.90;;;2.40;;
24335;SDS011;33098;52.400;16.880;2022-10-19T05:35:23;6.10;;;3.00;;
24335;SDS011;33098;52.400;16.880;2022-10-19T05:37:53;7.20;;;3.10;;
24335;SDS011;33098;52.400;16.880;2022-10-19T05:40:26;4.90;;;2.50;;
24335;SDS011;33098;52.400;16.880;2022-10-19T05:42:53;5.90;;;2.50;;
24335;SDS011;33098;52.400;16.880;2022-10-19T05:45:28;7.70;;;2.80;;
24335;SDS011;33098;52.400;16.880;2022-10-19T05:48:04;8.00;;;2.80;;
24335;SDS011;33098;52.400;16.880;2022-10-19T05:53:07;6.90;;;2.60;;
24335;SDS011;33098;52.400;16.880;2022-10-19T05:55:34;7.60;;;3.00;;
24335;SDS011;33098;52.400;16.880;2022-10-19T05:58:01;8.80;;;3.60;;
24335;SDS011;33098;52.400;16.880;2022-10-19T06:00:30;8.80;;;2.80;;
24335;SDS011;33098;52.400;16.880;2022-10-19T06:03:00;8.40;;;3.50;;
24335;SDS011;33098;52.400;16.880;2022-10-19T06:05:27;6.80;;;2.80;;
24335;SDS011;33098;52.400;16.880;2022-10-19T06:10:24;8.20;;;2.90;;
24335;SDS011;33098;52.400;16.880;2022-10-19T06:12:52;8.90;;;2.70;;
24335;SDS011;33098;52.400;16.880;2022-10-19T06:15:20;5.50;;;2.60;;
24335;SDS011;33098;52.400;16.880;2022-10-19T06:17:50;5.60;;;2.50;;
24335;SDS011;33098;52.400;16.880;2022-10-19T06:20:20;7.80;;;2.70;;
24335;SDS011;33098;52.400;16.880;2022-10-19T06:22:49;7.30;;;2.30;;
24335;SDS011;33098;52.400;16.880;2022-10-19T06:25:17;7.00;;;2.90;;
24335;SDS011;33098;52.400;16.880;2022-10-19T06:27:47;7.00;;;2.20;;
24335;SDS011;33098;52.400;16.880;2022-10-19T06:30:17;5.20;;;2.40;;
24335;SDS011;33098;52.400;16.880;2022-10-19T06:32:46;6.50;;;2.90;;
24335;SDS011;33098;52.400;16.880;2022-10-19T06:35:13;4.40;;;2.20;;
24335;SDS011;33098;52.400;16.880;2022-10-19T06:37:44;6.30;;;2.50;;
24335;SDS011;33098;52.400;16.880;2022-10-19T06:40:11;3.80;;;2.30;;
24335;SDS011;33098;52.400;16.880;2022-10-19T06:42:39;6.80;;;2.30;;
24335;SDS011;33098;52.400;16.880;2022-10-19T06:45:12;5.30;;;2.30;;
24335;SDS011;33098;52.400;16.880;2022-10-19T06:47:39;5.70;;;2.00;;
24335;SDS011;33098;52.400;16.880;2022-10-19T06:50:06;6.20;;;2.00;;
24335;SDS011;33098;52.400;16.880;2022-10-19T06:52:35;5.00;;;2.30;;
24335;SDS011;33098;52.400;16.880;2022-10-19T06:57:32;3.90;;;1.90;;
24335;SDS011;33098;52.400;16.880;2022-10-19T07:00:00;5.20;;;2.00;;
24335;SDS011;33098;52.400;16.880;2022-10-19T07:02:29;5.10;;;2.00;;
24335;SDS011;33098;52.400;16.880;2022-10-19T07:04:56;5.10;;;2.00;;
24335;SDS011;33098;52.400;16.880;2022-10-19T07:07:25;4.10;;;1.90;;
24335;SDS011;33098;52.400;16.880;2022-10-19T07:09:54;4.80;;;2.00;;
24335;SDS011;33098;52.400;16.880;2022-10-19T07:12:23;4.40;;;1.80;;
24335;SDS011;33098;52.400;16.880;2022-10-19T07:14:52;6.40;;;1.80;;
24335;SDS011;33098;52.400;16.880;2022-10-19T07:17:22;5.50;;;1.60;;
24335;SDS011;33098;52.400;16.880;2022-10-19T07:19:49;7.50;;;2.00;;
24335;SDS011;33098;52.400;16.880;2022-10-19T07:22:16;4.60;;;1.80;;
24335;SDS011;33098;52.400;16.880;2022-10-19T07:24:48;5.80;;;2.70;;
24335;SDS011;33098;52.400;16.880;2022-10-19T07:27:18;3.40;;;2.20;;
24335;SDS011;33098;52.400;16.880;2022-10-19T07:29:45;5.80;;;2.10;;
24335;SDS011;33098;52.400;16.880;2022-10-19T07:32:17;4.80;;;1.90;;
24335;SDS011;33098;52.400;16.880;2022-10-19T07:34:43;4.80;;;1.60;;
24335;SDS011;33098;52.400;16.880;2022-10-19T07:37:10;5.50;;;1.40;;
24335;SDS011;33098;52.400;16.880;2022-10-19T07:39:37;2.80;;;1.80;;
24335;SDS011;33098;52.400;16.880;2022-10-19T07:42:04;4.50;;;1.90;;
24335;SDS011;33098;52.400;16.880;2022-10-19T07:44:31;4.40;;;1.80;;
24335;SDS011;33098;52.400;16.880;2022-10-19T07:46:59;4.30;;;1.80;;
24335;SDS011;33098;52.400;16.880;2022-10-19T07:49:32;4.80;;;1.80;;
24335;SDS011;33098;52.400;16.880;2022-10-19T07:52:03;5.40;;;2.40;;
24335;SDS011;33098;52.400;16.880;2022-10-19T07:54:34;4.40;;;1.90;;
24335;SDS011;33098;52.400;16.880;2022-10-19T07:57:01;3.50;;;1.80;;
24335;SDS011;33098;52.400;16.880;2022-10-19T07:59:28;2.10;;;1.50;;
24335;SDS011;33098;52.400;16.880;2022-10-19T08:01:55;4.20;;;1.70;;
24335;SDS011;33098;52.400;16.880;2022-10-19T08:04:22;6.10;;;2.10;;
24335;SDS011;33098;52.400;16.880;2022-10-19T08:06:49;4.00;;;1.80;;
24335;SDS011;33098;52.400;16.880;2022-10-19T08:09:20;3.00;;;1.50;;
24335;SDS011;33098;52.400;16.880;2022-10-19T08:14:17;5.00;;;1.80;;
24335;SDS011;33098;52.400;16.880;2022-10-19T08:16:55;4.70;;;2.00;;
24335;SDS011;33098;52.400;16.880;2022-10-19T08:19:25;4.20;;;1.60;;
24335;SDS011;33098;52.400;16.880;2022-10-19T08:21:54;5.00;;;2.00;;
24335;SDS011;33098;52.400;16.880;2022-10-19T08:24:21;3.80;;;2.00;;
24335;SDS011;33098;52.400;16.880;2022-10-19T08:26:50;5.50;;;2.10;;
24335;SDS011;33098;52.400;16.880;2022-10-19T08:29:18;9.10;;;2.20;;
24335;SDS011;33098;52.400;16.880;2022-10-19T08:31:52;4.00;;;1.70;;
24335;SDS011;33098;52.400;16.880;2022-10-19T08:34:22;4.40;;;1.80;;
24335;SDS011;33098;52.400;16.880;2022-10-19T08:36:49;3.50;;;1.70;;
24335;SDS011;33098;52.400;16.880;2022-10-19T08:39:16;4.40;;;1.60;;
24335;SDS011;33098;52.400;16.880;2022-10-19T08:42:04;4.20;;;1.60;;
24335;SDS011;33098;52.400;16.880;2022-10-19T08:47:43;2.40;;;1.60;;
24335;SDS011;33098;52.400;16.880;2022-10-19T08:50:40;3.20;;;1.50;;
24335;SDS011;33098;52.400;16.880;2022-10-19T08:53:14;5.10;;;1.60;;
24335;SDS011;33098;52.400;16.880;2022-10-19T08:58:35;3.70;;;1.60;;
24335;SDS011;33098;52.400;16.880;2022-10-19T09:09:47;4.90;;;1.60;;
24335;SDS011;33098;52.400;16.880;2022-10-19T09:12:18;1.50;;;1.10;;
24335;SDS011;33098;52.400;16.880;2022-10-19T09:15:00;2.70;;;1.30;;
24335;SDS011;33098;52.400;16.880;2022-10-19T09:17:31;2.20;;;1.20;;
24335;SDS011;33098;52.400;16.880;2022-10-19T09:20:35;3.40;;;1.20;;
24335;SDS011;33098;52.400;16.880;2022-10-19T09:25:50;2.50;;;1.20;;
24335;SDS011;33098;52.400;16.880;2022-10-19T09:28:35;2.50;;;1.30;;
24335;SDS011;33098;52.400;16.880;2022-10-19T09:31:21;4.80;;;1.60;;
24335;SDS011;33098;52.400;16.880;2022-10-19T09:33:54;3.20;;;1.40;;
24335;SDS011;33098;52.400;16.880;2022-10-19T09:36:37;4.70;;;1.30;;
24335;SDS011;33098;52.400;16.880;2022-10-19T09:39:13;2.70;;;1.20;;
24335;SDS011;33098;52.400;16.880;2022-10-19T09:41:48;2.60;;;1.30;;
24335;SDS011;33098;52.400;16.880;2022-10-19T09:44:22;3.70;;;1.40;;
24335;SDS011;33098;52.400;16.880;2022-10-19T09:50:04;3.40;;;1.30;;
24335;SDS011;33098;52.400;16.880;2022-10-19T09:52:36;3.70;;;1.40;;
24335;SDS011;33098;52.400;16.880;2022-10-19T09:55:09;4.30;;;1.20;;
24335;SDS011;33098;52.400;16.880;2022-10-19T09:57:50;2.50;;;1.20;;
24335;SDS011;33098;52.400;16.880;2022-10-19T10:00:37;3.90;;;1.40;;
24335;SDS011;33098;52.400;16.880;2022-10-19T10:03:52;4.50;;;1.60;;
24335;SDS011;33098;52.400;16.880;2022-10-19T10:06:09;2.00;;;1.10;;
24335;SDS011;33098;52.400;16.880;2022-10-19T10:08:58;3.00;;;1.20;;
24335;SDS011;33098;52.400;16.880;2022-10-19T10:13:53;1.80;;;1.10;;
24335;SDS011;33098;52.400;16.880;2022-10-19T10:16:22;3.00;;;1.20;;
24335;SDS011;33098;52.400;16.880;2022-10-19T10:21:46;2.40;;;1.30;;
24335;SDS011;33098;52.400;16.880;2022-10-19T10:26:48;2.60;;;1.10;;
24335;SDS011;33098;52.400;16.880;2022-10-19T10:31:48;5.60;;;1.30;;
24335;SDS011;33098;52.400;16.880;2022-10-19T10:34:29;4.00;;;1.20;;
24335;SDS011;33098;52.400;16.880;2022-10-19T10:36:56;4.20;;;1.20;;
24335;SDS011;33098;52.400;16.880;2022-10-19T10:39:26;2.30;;;1.20;;
24335;SDS011;33098;52.400;16.880;2022-10-19T10:41:55;5.70;;;1.60;;
24335;SDS011;33098;52.400;16.880;2022-10-19T10:44:32;1.10;;;0.80;;
24335;SDS011;33098;52.400;16.880;2022-10-19T10:47:03;2.00;;;0.70;;
24335;SDS011;33098;52.400;16.880;2022-10-19T10:49:39;2.70;;;0.60;;
24335;SDS011;33098;52.400;16.880;2022-10-19T10:52:12;4.10;;;0.80;;
24335;SDS011;33098;52.400;16.880;2022-10-19T10:54:55;1.40;;;0.90;;
24335;SDS011;33098;52.400;16.880;2022-10-19T10:57:45;1.30;;;0.80;;
24335;SDS011;33098;52.400;16.880;2022-10-19T11:00:20;2.80;;;0.80;;
24335;SDS011;33098;52.400;16.880;2022-10-19T11:05:53;1.20;;;0.80;;
24335;SDS011;33098;52.400;16.880;2022-10-19T11:08:32;0.80;;;0.80;;
24335;SDS011;33098;52.400;16.880;2022-10-19T11:11:18;1.20;;;0.90;;
24335;SDS011;33098;52.400;16.880;2022-10-19T11:14:52;1.40;;;0.70;;
24335;SDS011;33098;52.400;16.880;2022-10-19T11:16:58;1.10;;;0.90;;
24335;SDS011;33098;52.400;16.880;2022-10-19T11:30:30;3.10;;;1.20;;
24335;SDS011;33098;52.400;16.880;2022-10-19T11:33:17;2.50;;;1.30;;
24335;SDS011;33098;52.400;16.880;2022-10-19T11:35:53;4.60;;;1.40;;
24335;SDS011;33098;52.400;16.880;2022-10-19T11:38:27;2.90;;;1.20;;
24335;SDS011;33098;52.400;16.880;2022-10-19T11:49:43;1.70;;;0.80;;
24335;SDS011;33098;52.400;16.880;2022-10-19T11:52:15;1.90;;;1.00;;
24335;SDS011;33098;52.400;16.880;2022-10-19T11:55:03;3.30;;;1.20;;
24335;SDS011;33098;52.400;16.880;2022-10-19T11:57:45;2.20;;;0.90;;
24335;SDS011;33098;52.400;16.880;2022-10-19T12:00:22;1.40;;;1.10;;
24335;SDS011;33098;52.400;16.880;2022-10-19T12:11:40;3.00;;;1.10;;
24335;SDS011;33098;52.400;16.880;2022-10-19T12:14:21;1.80;;;1.20;;
24335;SDS011;33098;52.400;16.880;2022-10-19T12:16:59;2.70;;;1.20;;
24335;SDS011;33098;52.400;16.880;2022-10-19T12:19:41;2.30;;;1.30;;
24335;SDS011;33098;52.400;16.880;2022-10-19T12:22:16;2.00;;;1.10;;
24335;SDS011;33098;52.400;16.880;2022-10-19T12:24:47;1.00;;;0.90;;
24335;SDS011;33098;52.400;16.880;2022-10-19T12:27:26;1.50;;;0.90;;
24335;SDS011;33098;52.400;16.880;2022-10-19T12:30:06;1.50;;;1.00;;
24335;SDS011;33098;52.400;16.880;2022-10-19T12:32:51;1.60;;;1.00;;
24335;SDS011;33098;52.400;16.880;2022-10-19T12:41:34;2.10;;;1.50;;
24335;SDS011;33098;52.400;16.880;2022-10-19T12:47:08;2.60;;;1.00;;
24335;SDS011;33098;52.400;16.880;2022-10-19T12:52:16;2.60;;;1.40;;
24335;SDS011;33098;52.400;16.880;2022-10-19T12:57:55;1.90;;;1.10;;
24335;SDS011;33098;52.400;16.880;2022-10-19T13:00:29;1.70;;;1.10;;
24335;SDS011;33098;52.400;16.880;2022-10-19T13:05:47;2.00;;;1.40;;
24335;SDS011;33098;52.400;16.880;2022-10-19T13:11:20;1.60;;;1.50;;
24335;SDS011;33098;52.400;16.880;2022-10-19T13:16:32;1.90;;;1.10;;
24335;SDS011;33098;52.400;16.880;2022-10-19T13:24:18;1.30;;;0.90;;
24335;SDS011;33098;52.400;16.880;2022-10-19T13:29:48;1.60;;;1.10;;
24335;SDS011;33098;52.400;16.880;2022-10-19T13:43:17;2.60;;;1.10;;
24335;SDS011;33098;52.400;16.880;2022-10-19T13:48:26;0.90;;;0.70;;
24335;SDS011;33098;52.400;16.880;2022-10-19T13:51:29;1.30;;;1.00;;
24335;SDS011;33098;52.400;16.880;2022-10-19T13:54:19;1.90;;;0.90;;
24335;SDS011;33098;52.400;16.880;2022-10-19T13:56:58;1.20;;;0.70;;
24335;SDS011;33098;52.400;16.880;2022-10-19T13:59:42;1.30;;;0.70;;
24335;SDS011;33098;52.400;16.880;2022-10-19T14:05:13;0.70;;;0.60;;
24335;SDS011;33098;52.400;16.880;2022-10-19T14:08:14;0.90;;;0.60;;
24335;SDS011;33098;52.400;16.880;2022-10-19T14:13:32;1.50;;;0.90;;
24335;SDS011;33098;52.400;16.880;2022-10-19T14:15:59;1.40;;;0.80;;
24335;SDS011;33098;52.400;16.880;2022-10-19T14:18:32;2.10;;;1.00;;
24335;SDS011;33098;52.400;16.880;2022-10-19T14:21:04;3.80;;;1.20;;
24335;SDS011;33098;52.400;16.880;2022-10-19T14:23:34;1.40;;;1.10;;
24335;SDS011;33098;52.400;16.880;2022-10-19T14:26:04;2.70;;;1.30;;
24335;SDS011;33098;52.400;16.880;2022-10-19T14:28:42;2.40;;;1.30;;
24335;SDS011;33098;52.400;16.880;2022-10-19T14:31:11;3.90;;;1.30;;
24335;SDS011;33098;52.400;16.880;2022-10-19T14:33:45;1.80;;;1.10;;
24335;SDS011;33098;52.400;16.880;2022-10-19T14:38:44;1.60;;;1.00;;
24335;SDS011;33098;52.400;16.880;2022-10-19T14:41:29;1.50;;;1.20;;
24335;SDS011;33098;52.400;16.880;2022-10-19T14:43:59;3.60;;;1.80;;
24335;SDS011;33098;52.400;16.880;2022-10-19T14:46:32;4.20;;;1.70;;
24335;SDS011;33098;52.400;16.880;2022-10-19T14:49:00;2.20;;;1.40;;
24335;SDS011;33098;52.400;16.880;2022-10-19T14:57:03;1.20;;;1.00;;
24335;SDS011;33098;52.400;16.880;2022-10-19T14:59:34;1.60;;;0.80;;
24335;SDS011;33098;52.400;16.880;2022-10-19T15:02:13;2.70;;;1.10;;
24335;SDS011;33098;52.400;16.880;2022-10-19T15:04:49;2.10;;;0.90;;
24335;SDS011;33098;52.400;16.880;2022-10-19T15:07:22;1.30;;;0.80;;
24335;SDS011;33098;52.400;16.880;2022-10-19T15:09:58;1.80;;;1.00;;
24335;SDS011;33098;52.400;16.880;2022-10-19T15:12:28;1.10;;;0.80;;
24335;SDS011;33098;52.400;16.880;2022-10-19T15:15:05;1.40;;;1.00;;
24335;SDS011;33098;52.400;16.880;2022-10-19T15:17:51;1.70;;;1.00;;
24335;SDS011;33098;52.400;16.880;2022-10-19T15:20:31;2.40;;;1.10;;
24335;SDS011;33098;52.400;16.880;2022-10-19T15:23:02;1.00;;;0.90;;
24335;SDS011;33098;52.400;16.880;2022-10-19T15:26:01;1.30;;;1.10;;
24335;SDS011;33098;52.400;16.880;2022-10-19T15:28:48;1.50;;;0.90;;
24335;SDS011;33098;52.400;16.880;2022-10-19T15:31:17;1.70;;;1.00;;
24335;SDS011;33098;52.400;16.880;2022-10-19T15:33:50;1.30;;;1.00;;
24335;SDS011;33098;52.400;16.880;2022-10-19T15:36:19;1.30;;;1.10;;
24335;SDS011;33098;52.400;16.880;2022-10-19T15:38:48;2.20;;;1.20;;
24335;SDS011;33098;52.400;16.880;2022-10-19T15:43:59;1.40;;;1.00;;
24335;SDS011;33098;52.400;16.880;2022-10-19T15:52:13;2.10;;;1.30;;
24335;SDS011;33098;52.400;16.880;2022-10-19T15:54:40;3.00;;;1.30;;
24335;SDS011;33098;52.400;16.880;2022-10-19T15:59:55;1.60;;;1.20;;
24335;SDS011;33098;52.400;16.880;2022-10-19T16:02:24;2.30;;;1.30;;
24335;SDS011;33098;52.400;16.880;2022-10-19T16:04:51;2.40;;;1.50;;
24335;SDS011;33098;52.400;16.880;2022-10-19T16:07:23;2.50;;;1.50;;
24335;SDS011;33098;52.400;16.880;2022-10-19T16:09:53;3.50;;;1.50;;
24335;SDS011;33098;52.400;16.880;2022-10-19T16:12:23;3.50;;;1.30;;
24335;SDS011;33098;52.400;16.880;2022-10-19T16:14:52;2.20;;;1.50;;
24335;SDS011;33098;52.400;16.880;2022-10-19T16:17:19;3.00;;;1.40;;
24335;SDS011;33098;52.400;16.880;2022-10-19T16:19:48;3.60;;;1.60;;
24335;SDS011;33098;52.400;16.880;2022-10-19T16:22:15;2.50;;;1.80;;
24335;SDS011;33098;52.400;16.880;2022-10-19T16:24:42;3.90;;;2.00;;
24335;SDS011;33098;52.400;16.880;2022-10-19T16:27:08;3.20;;;1.90;;
24335;SDS011;33098;52.400;16.880;2022-10-19T16:29:40;4.50;;;2.40;;
24335;SDS011;33098;52.400;16.880;2022-10-19T16:32:08;4.50;;;2.30;;
24335;SDS011;33098;52.400;16.880;2022-10-19T16:34:35;4.70;;;2.80;;
24335;SDS011;33098;52.400;16.880;2022-10-19T16:37:03;5.60;;;2.60;;
24335;SDS011;33098;52.400;16.880;2022-10-19T16:39:30;4.70;;;2.80;;
24335;SDS011;33098;52.400;16.880;2022-10-19T16:41:57;4.60;;;3.20;;
24335;SDS011;33098;52.400;16.880;2022-10-19T16:44:24;5.30;;;3.50;;
24335;SDS011;33098;52.400;16.880;2022-10-19T16:46:50;12.20;;;8.70;;
24335;SDS011;33098;52.400;16.880;2022-10-19T16:49:17;11.60;;;6.20;;
24335;SDS011;33098;52.400;16.880;2022-10-19T16:51:43;7.50;;;4.40;;
24335;SDS011;33098;52.400;16.880;2022-10-19T16:54:10;7.70;;;4.20;;
24335;SDS011;33098;52.400;16.880;2022-10-19T16:56:41;5.80;;;4.00;;
24335;SDS011;33098;52.400;16.880;2022-10-19T16:59:10;6.90;;;4.00;;
24335;SDS011;33098;52.400;16.880;2022-10-19T17:01:40;8.40;;;4.10;;
24335;SDS011;33098;52.400;16.880;2022-10-19T17:04:09;8.10;;;4.40;;
24335;SDS011;33098;52.400;16.880;2022-10-19T17:06:37;7.00;;;4.20;;
24335;SDS011;33098;52.400;16.880;2022-10-19T17:09:04;6.30;;;4.10;;
24335;SDS011;33098;52.400;16.880;2022-10-19T17:11:32;7.20;;;4.00;;
24335;SDS011;33098;52.400;16.880;2022-10-19T17:14:02;6.30;;;4.10;;
24335;SDS011;33098;52.400;16.880;2022-10-19T17:16:32;7.90;;;4.40;;
24335;SDS011;33098;52.400;16.880;2022-10-19T17:19:00;8.40;;;4.50;;
24335;SDS011;33098;52.400;16.880;2022-10-19T17:21:30;8.70;;;4.50;;
24335;SDS011;33098;52.400;16.880;2022-10-19T17:23:59;6.80;;;4.60;;
24335;SDS011;33098;52.400;16.880;2022-10-19T17:26:28;9.30;;;4.70;;
24335;SDS011;33098;52.400;16.880;2022-10-19T17:29:00;6.10;;;4.20;;
24335;SDS011;33098;52.400;16.880;2022-10-19T17:31:28;11.00;;;4.40;;
24335;SDS011;33098;52.400;16.880;2022-10-19T17:33:55;8.80;;;4.60;;
24335;SDS011;33098;52.400;16.880;2022-10-19T17:36:24;7.00;;;4.30;;
24335;SDS011;33098;52.400;16.880;2022-10-19T17:39:02;9.20;;;5.20;;
24335;SDS011;33098;52.400;16.880;2022-10-19T17:41:33;9.00;;;4.90;;
24335;SDS011;33098;52.400;16.880;2022-10-19T17:44:01;7.40;;;4.60;;
24335;SDS011;33098;52.400;16.880;2022-10-19T17:46:30;7.70;;;5.20;;
24335;SDS011;33098;52.400;16.880;2022-10-19T17:49:02;10.50;;;5.40;;
24335;SDS011;33098;52.400;16.880;2022-10-19T17:51:33;9.90;;;5.40;;